aviador You're here:

PAGY Decoded Metar

SKAGWAY in AK, USA
Report Time2018-06-18 18:53:00
UTC Time2018-06-18 19:08:14
Flight Rules vfr VFR
Wind260° at 05 kt
W.Decomp.*RWY 20: 4.3 kt HW 2.6 kt RCW
W.Rank260° ranks 15
Current wind is below 260° avg. (5.1)
Visibility9999 m
Phenomena:N/A
Clouds:N/A
Expected CloudBase > 1,200 ft AGL from Temp-Dew spread
CeilingNone
Temp14°C (ISA -1)
Dew Point11°C (82% RH)
AAT12.5°C
QNH1023 hPa
Density Alt-259 ft
Elevation16 ft
Report Wrong Elevation
Raw Report
PAGY 181853Z AUTO 26005KT 10SM CLR 14/11 A3021 RMK AO2 SLP230
T01440111 TSNO=

Extra information for PAGY:More info

Metar Taf Metar & Taf Last 4 Metars F.Rules Stats Wind Profile Meteogram Temp Stats Airport Information Weather charts Add Link Nearby VenuesMetar ALERT Operation Metar Decoded Social comments

AIRNAV info for PAGY